Terminal Aerodrome Forecast
Issued by NWS Twin Cities, MN

Home | Current Version | Previous Version | Text Only | Print | Product List | Glossary Off
Versions: 1 2 3 4 5 6 7 8 9 10 11 12 13 14 15 16

967
FTUS43 KMPX 201140
TAFSTC
TAF
KSTC 201140Z 2012/2112 23007KT P6SM SCT150
      TEMPO 2012/2014 3SM BR OVC004
     FM201500 28012KT P6SM SKC
     FM210000 VRB03KT P6SM SKC=

USA.gov is the U.S. government's official web portal to all federal, state and local government web resources and services.